Ama, Louisiana
Current Conditions -  °F | °C
As of 5:53 AM on Thursday 23 Oct 2014 (Local Time) from KMSY Reporting Station
Clear Clear  
Wind Chill: 17°   Ceiling: Unl
Heat Index: 17°   Visibility: 10mi
Dew Point: 10°   Wind: 6mph
Humidity: 63%   Direction: 70°ENE
Pressure: 30.06"   Gusts: NA
Location:  29.95°N, 90.3°W
Report Text: KMSY 231053Z 07005KT 10SM CLR 17/10 A3006 RMK AO2 SLP183 T01720100
Loading
Personal Weather Stations






























Interactive Weather Map
Tropical Storm Tracking
New forecast layout! Learn more

10-Day Weather Forecast

Advertisements
Track Severe Weather on mobile